sensor_id;sensor_type;location;lat;lon;timestamp;P1;durP1;ratioP1;P2;durP2;ratioP2
76733;SDS011;65660;53.288;14.666;2023-08-12T00:02:45;6.05;;;5.55;;
76733;SDS011;65660;53.288;14.666;2023-08-12T00:07:46;6.30;;;5.70;;
76733;SDS011;65660;53.288;14.666;2023-08-12T00:12:46;6.90;;;5.63;;
76733;SDS011;65660;53.288;14.666;2023-08-12T00:17:47;5.93;;;5.38;;
76733;SDS011;65660;53.288;14.666;2023-08-12T00:22:47;6.60;;;5.50;;
76733;SDS011;65660;53.288;14.666;2023-08-12T00:27:48;6.00;;;5.50;;
76733;SDS011;65660;53.288;14.666;2023-08-12T00:32:48;6.13;;;5.53;;
76733;SDS011;65660;53.288;14.666;2023-08-12T00:37:49;6.72;;;5.90;;
76733;SDS011;65660;53.288;14.666;2023-08-12T00:42:49;6.40;;;5.82;;
76733;SDS011;65660;53.288;14.666;2023-08-12T00:47:50;6.40;;;5.80;;
76733;SDS011;65660;53.288;14.666;2023-08-12T00:52:50;6.38;;;5.85;;
76733;SDS011;65660;53.288;14.666;2023-08-12T00:57:51;7.53;;;6.18;;
76733;SDS011;65660;53.288;14.666;2023-08-12T01:02:52;6.80;;;6.20;;
76733;SDS011;65660;53.288;14.666;2023-08-12T01:07:54;7.40;;;6.40;;
76733;SDS011;65660;53.288;14.666;2023-08-12T01:18:22;6.65;;;5.95;;
76733;SDS011;65660;53.288;14.666;2023-08-12T01:23:24;6.43;;;5.82;;
76733;SDS011;65660;53.288;14.666;2023-08-12T01:28:25;5.38;;;4.88;;
76733;SDS011;65660;53.288;14.666;2023-08-12T01:38:41;6.28;;;5.53;;
76733;SDS011;65660;53.288;14.666;2023-08-12T01:43:43;8.43;;;5.78;;
76733;SDS011;65660;53.288;14.666;2023-08-12T01:48:44;6.45;;;5.70;;
76733;SDS011;65660;53.288;14.666;2023-08-12T01:53:44;6.88;;;5.75;;
76733;SDS011;65660;53.288;14.666;2023-08-12T01:58:45;6.07;;;5.57;;
76733;SDS011;65660;53.288;14.666;2023-08-12T02:03:45;7.05;;;6.35;;
76733;SDS011;65660;53.288;14.666;2023-08-12T02:08:46;6.45;;;5.85;;
76733;SDS011;65660;53.288;14.666;2023-08-12T02:13:46;7.45;;;6.75;;
76733;SDS011;65660;53.288;14.666;2023-08-12T02:18:47;10.65;;;6.90;;
76733;SDS011;65660;53.288;14.666;2023-08-12T02:23:48;8.00;;;6.25;;
76733;SDS011;65660;53.288;14.666;2023-08-12T02:28:48;7.93;;;7.22;;
76733;SDS011;65660;53.288;14.666;2023-08-12T02:33:49;9.20;;;8.40;;
76733;SDS011;65660;53.288;14.666;2023-08-12T02:38:49;7.82;;;6.72;;
76733;SDS011;65660;53.288;14.666;2023-08-12T02:43:50;8.75;;;6.78;;
76733;SDS011;65660;53.288;14.666;2023-08-12T02:48:51;8.00;;;6.70;;
76733;SDS011;65660;53.288;14.666;2023-08-12T02:53:51;10.35;;;7.93;;
76733;SDS011;65660;53.288;14.666;2023-08-12T02:58:52;8.38;;;7.07;;
76733;SDS011;65660;53.288;14.666;2023-08-12T03:03:52;6.30;;;5.80;;
76733;SDS011;65660;53.288;14.666;2023-08-12T03:08:53;7.28;;;6.45;;
76733;SDS011;65660;53.288;14.666;2023-08-12T03:13:55;6.75;;;6.13;;
76733;SDS011;65660;53.288;14.666;2023-08-12T03:18:55;9.07;;;6.80;;
76733;SDS011;65660;53.288;14.666;2023-08-12T03:23:56;7.00;;;6.20;;
76733;SDS011;65660;53.288;14.666;2023-08-12T03:28:56;8.15;;;6.20;;
76733;SDS011;65660;53.288;14.666;2023-08-12T03:33:57;8.25;;;7.45;;
76733;SDS011;65660;53.288;14.666;2023-08-12T03:38:57;8.43;;;7.32;;
76733;SDS011;65660;53.288;14.666;2023-08-12T03:43:58;9.52;;;7.60;;
76733;SDS011;65660;53.288;14.666;2023-08-12T03:48:59;11.18;;;7.82;;
76733;SDS011;65660;53.288;14.666;2023-08-12T03:53:59;7.70;;;6.95;;
76733;SDS011;65660;53.288;14.666;2023-08-12T03:59:00;12.70;;;11.65;;
76733;SDS011;65660;53.288;14.666;2023-08-12T04:04:00;10.82;;;7.93;;
76733;SDS011;65660;53.288;14.666;2023-08-12T04:09:01;8.82;;;7.50;;
76733;SDS011;65660;53.288;14.666;2023-08-12T04:14:02;10.45;;;8.20;;
76733;SDS011;65660;53.288;14.666;2023-08-12T04:19:02;7.70;;;7.00;;
76733;SDS011;65660;53.288;14.666;2023-08-12T04:24:03;11.35;;;8.63;;
76733;SDS011;65660;53.288;14.666;2023-08-12T04:29:04;8.73;;;7.93;;
76733;SDS011;65660;53.288;14.666;2023-08-12T04:34:04;9.93;;;8.93;;
76733;SDS011;65660;53.288;14.666;2023-08-12T04:39:05;9.60;;;8.07;;
76733;SDS011;65660;53.288;14.666;2023-08-12T04:44:06;11.65;;;10.48;;
76733;SDS011;65660;53.288;14.666;2023-08-12T04:49:06;11.15;;;10.02;;
76733;SDS011;65660;53.288;14.666;2023-08-12T04:54:07;9.75;;;8.73;;
76733;SDS011;65660;53.288;14.666;2023-08-12T04:59:07;11.82;;;9.57;;
76733;SDS011;65660;53.288;14.666;2023-08-12T05:04:08;11.85;;;9.50;;
76733;SDS011;65660;53.288;14.666;2023-08-12T05:09:08;12.00;;;8.93;;
76733;SDS011;65660;53.288;14.666;2023-08-12T05:14:09;9.90;;;8.30;;
76733;SDS011;65660;53.288;14.666;2023-08-12T05:19:10;9.77;;;8.88;;
76733;SDS011;65660;53.288;14.666;2023-08-12T05:24:10;10.65;;;8.95;;
76733;SDS011;65660;53.288;14.666;2023-08-12T05:29:11;9.52;;;8.50;;
76733;SDS011;65660;53.288;14.666;2023-08-12T05:34:11;8.77;;;7.97;;
76733;SDS011;65660;53.288;14.666;2023-08-12T05:39:12;11.05;;;10.10;;
76733;SDS011;65660;53.288;14.666;2023-08-12T05:44:13;9.55;;;8.55;;
76733;SDS011;65660;53.288;14.666;2023-08-12T05:49:13;11.20;;;8.27;;
76733;SDS011;65660;53.288;14.666;2023-08-12T05:54:14;9.00;;;8.10;;
76733;SDS011;65660;53.288;14.666;2023-08-12T05:59:14;9.27;;;8.07;;
76733;SDS011;65660;53.288;14.666;2023-08-12T06:04:15;11.90;;;9.63;;
76733;SDS011;65660;53.288;14.666;2023-08-12T06:09:15;9.13;;;8.25;;
76733;SDS011;65660;53.288;14.666;2023-08-12T06:14:16;9.63;;;8.15;;
76733;SDS011;65660;53.288;14.666;2023-08-12T06:19:17;9.52;;;8.63;;
76733;SDS011;65660;53.288;14.666;2023-08-12T06:24:17;8.70;;;7.90;;
76733;SDS011;65660;53.288;14.666;2023-08-12T06:29:18;10.57;;;9.50;;
76733;SDS011;65660;53.288;14.666;2023-08-12T06:34:18;9.57;;;8.55;;
76733;SDS011;65660;53.288;14.666;2023-08-12T06:39:19;9.27;;;7.93;;
76733;SDS011;65660;53.288;14.666;2023-08-12T06:44:20;11.82;;;8.45;;
76733;SDS011;65660;53.288;14.666;2023-08-12T06:49:21;9.05;;;7.60;;
76733;SDS011;65660;53.288;14.666;2023-08-12T06:54:21;8.15;;;7.35;;
76733;SDS011;65660;53.288;14.666;2023-08-12T06:59:22;8.05;;;7.30;;
76733;SDS011;65660;53.288;14.666;2023-08-12T07:04:23;9.40;;;7.80;;
76733;SDS011;65660;53.288;14.666;2023-08-12T07:09:23;9.38;;;8.38;;
76733;SDS011;65660;53.288;14.666;2023-08-12T07:14:24;8.80;;;8.00;;
76733;SDS011;65660;53.288;14.666;2023-08-12T07:19:24;8.50;;;7.60;;
76733;SDS011;65660;53.288;14.666;2023-08-12T07:24:25;9.15;;;8.32;;
76733;SDS011;65660;53.288;14.666;2023-08-12T07:29:25;8.98;;;8.07;;
76733;SDS011;65660;53.288;14.666;2023-08-12T07:34:26;9.02;;;7.63;;
76733;SDS011;65660;53.288;14.666;2023-08-12T07:39:27;7.68;;;6.97;;
76733;SDS011;65660;53.288;14.666;2023-08-12T07:44:28;9.43;;;8.30;;
76733;SDS011;65660;53.288;14.666;2023-08-12T07:49:28;8.13;;;7.32;;
76733;SDS011;65660;53.288;14.666;2023-08-12T07:54:29;9.52;;;8.68;;
76733;SDS011;65660;53.288;14.666;2023-08-12T07:59:30;8.15;;;7.38;;
76733;SDS011;65660;53.288;14.666;2023-08-12T08:04:31;8.30;;;7.60;;
76733;SDS011;65660;53.288;14.666;2023-08-12T08:09:33;8.50;;;7.60;;
76733;SDS011;65660;53.288;14.666;2023-08-12T08:14:36;10.75;;;7.80;;
76733;SDS011;65660;53.288;14.666;2023-08-12T08:19:37;8.50;;;7.63;;
76733;SDS011;65660;53.288;14.666;2023-08-12T08:24:38;9.02;;;8.30;;
76733;SDS011;65660;53.288;14.666;2023-08-12T08:29:38;9.13;;;8.20;;
76733;SDS011;65660;53.288;14.666;2023-08-12T08:34:39;8.25;;;7.40;;
76733;SDS011;65660;53.288;14.666;2023-08-12T08:39:40;7.95;;;7.35;;
76733;SDS011;65660;53.288;14.666;2023-08-12T08:44:40;8.65;;;7.95;;
76733;SDS011;65660;53.288;14.666;2023-08-12T08:49:42;7.07;;;6.32;;
76733;SDS011;65660;53.288;14.666;2023-08-12T08:54:43;6.28;;;5.50;;
76733;SDS011;65660;53.288;14.666;2023-08-12T08:59:44;6.13;;;5.50;;
76733;SDS011;65660;53.288;14.666;2023-08-12T09:04:45;5.85;;;5.00;;
76733;SDS011;65660;53.288;14.666;2023-08-12T09:09:46;5.40;;;4.80;;
76733;SDS011;65660;53.288;14.666;2023-08-12T09:14:49;6.53;;;5.30;;
76733;SDS011;65660;53.288;14.666;2023-08-12T09:19:50;6.28;;;5.32;;
76733;SDS011;65660;53.288;14.666;2023-08-12T09:24:55;7.88;;;5.28;;
76733;SDS011;65660;53.288;14.666;2023-08-12T09:29:58;7.10;;;6.50;;
76733;SDS011;65660;53.288;14.666;2023-08-12T09:34:59;6.20;;;5.63;;
76733;SDS011;65660;53.288;14.666;2023-08-12T09:39:59;8.18;;;6.07;;
76733;SDS011;65660;53.288;14.666;2023-08-12T09:45:01;6.28;;;5.60;;
76733;SDS011;65660;53.288;14.666;2023-08-12T09:50:02;6.60;;;6.00;;
76733;SDS011;65660;53.288;14.666;2023-08-12T09:55:02;7.18;;;5.85;;
76733;SDS011;65660;53.288;14.666;2023-08-12T10:00:05;6.10;;;5.60;;
76733;SDS011;65660;53.288;14.666;2023-08-12T10:05:07;6.93;;;6.35;;
76733;SDS011;65660;53.288;14.666;2023-08-12T10:10:10;7.35;;;6.05;;
76733;SDS011;65660;53.288;14.666;2023-08-12T10:15:10;7.28;;;6.68;;
76733;SDS011;65660;53.288;14.666;2023-08-12T10:20:17;7.57;;;6.80;;
76733;SDS011;65660;53.288;14.666;2023-08-12T10:25:20;8.38;;;7.57;;
76733;SDS011;65660;53.288;14.666;2023-08-12T10:30:21;9.13;;;7.30;;
76733;SDS011;65660;53.288;14.666;2023-08-12T10:35:22;9.13;;;8.32;;
76733;SDS011;65660;53.288;14.666;2023-08-12T10:40:23;8.65;;;7.78;;
76733;SDS011;65660;53.288;14.666;2023-08-12T10:45:24;9.07;;;8.18;;
76733;SDS011;65660;53.288;14.666;2023-08-12T10:50:46;8.15;;;7.45;;
76733;SDS011;65660;53.288;14.666;2023-08-12T10:55:48;8.38;;;7.68;;
76733;SDS011;65660;53.288;14.666;2023-08-12T11:00:52;9.48;;;8.57;;
76733;SDS011;65660;53.288;14.666;2023-08-12T11:05:54;9.75;;;8.40;;
76733;SDS011;65660;53.288;14.666;2023-08-12T11:10:55;10.30;;;9.30;;
76733;SDS011;65660;53.288;14.666;2023-08-12T11:16:09;9.55;;;8.75;;
76733;SDS011;65660;53.288;14.666;2023-08-12T11:21:10;10.00;;;9.07;;
76733;SDS011;65660;53.288;14.666;2023-08-12T11:26:11;10.50;;;9.45;;
76733;SDS011;65660;53.288;14.666;2023-08-12T11:31:11;9.73;;;8.48;;
76733;SDS011;65660;53.288;14.666;2023-08-12T11:36:12;8.90;;;8.00;;
76733;SDS011;65660;53.288;14.666;2023-08-12T11:41:12;8.52;;;7.82;;
76733;SDS011;65660;53.288;14.666;2023-08-12T11:46:15;9.20;;;8.40;;
76733;SDS011;65660;53.288;14.666;2023-08-12T11:51:16;8.55;;;7.80;;
76733;SDS011;65660;53.288;14.666;2023-08-12T11:56:16;8.82;;;8.00;;
76733;SDS011;65660;53.288;14.666;2023-08-12T12:01:17;9.70;;;8.77;;
76733;SDS011;65660;53.288;14.666;2023-08-12T12:06:27;8.07;;;7.38;;
76733;SDS011;65660;53.288;14.666;2023-08-12T12:11:29;8.77;;;7.88;;
76733;SDS011;65660;53.288;14.666;2023-08-12T12:16:42;9.68;;;8.82;;
76733;SDS011;65660;53.288;14.666;2023-08-12T12:21:47;8.73;;;7.95;;
76733;SDS011;65660;53.288;14.666;2023-08-12T12:26:49;9.70;;;8.80;;
76733;SDS011;65660;53.288;14.666;2023-08-12T12:31:50;11.40;;;10.50;;
76733;SDS011;65660;53.288;14.666;2023-08-12T12:36:51;11.00;;;9.98;;
76733;SDS011;65660;53.288;14.666;2023-08-12T12:41:51;9.27;;;8.48;;
76733;SDS011;65660;53.288;14.666;2023-08-12T12:46:52;10.38;;;9.38;;
76733;SDS011;65660;53.288;14.666;2023-08-12T12:51:53;8.50;;;7.72;;
76733;SDS011;65660;53.288;14.666;2023-08-12T12:56:53;9.73;;;8.43;;
76733;SDS011;65660;53.288;14.666;2023-08-12T13:01:54;11.40;;;10.50;;
76733;SDS011;65660;53.288;14.666;2023-08-12T13:06:55;11.50;;;10.60;;
76733;SDS011;65660;53.288;14.666;2023-08-12T13:11:58;10.10;;;9.20;;
76733;SDS011;65660;53.288;14.666;2023-08-12T13:16:58;10.65;;;9.60;;
76733;SDS011;65660;53.288;14.666;2023-08-12T13:22:00;10.18;;;9.20;;
76733;SDS011;65660;53.288;14.666;2023-08-12T13:27:06;9.02;;;8.30;;
76733;SDS011;65660;53.288;14.666;2023-08-12T13:32:07;8.45;;;7.57;;
76733;SDS011;65660;53.288;14.666;2023-08-12T13:37:08;9.52;;;8.63;;
76733;SDS011;65660;53.288;14.666;2023-08-12T13:42:09;9.07;;;8.10;;
76733;SDS011;65660;53.288;14.666;2023-08-12T13:47:10;10.20;;;9.50;;
76733;SDS011;65660;53.288;14.666;2023-08-12T13:52:10;8.10;;;7.45;;
76733;SDS011;65660;53.288;14.666;2023-08-12T13:57:11;9.07;;;8.35;;
76733;SDS011;65660;53.288;14.666;2023-08-12T14:02:11;9.57;;;8.77;;
76733;SDS011;65660;53.288;14.666;2023-08-12T14:07:12;12.55;;;11.45;;
76733;SDS011;65660;53.288;14.666;2023-08-12T14:12:13;10.52;;;9.57;;
76733;SDS011;65660;53.288;14.666;2023-08-12T14:17:13;11.27;;;10.20;;
76733;SDS011;65660;53.288;14.666;2023-08-12T14:22:15;10.75;;;9.95;;
76733;SDS011;65660;53.288;14.666;2023-08-12T14:27:20;11.50;;;10.50;;
76733;SDS011;65660;53.288;14.666;2023-08-12T14:32:21;11.02;;;10.00;;
76733;SDS011;65660;53.288;14.666;2023-08-12T14:37:21;9.77;;;9.07;;
76733;SDS011;65660;53.288;14.666;2023-08-12T14:42:22;10.88;;;9.98;;
76733;SDS011;65660;53.288;14.666;2023-08-12T14:47:23;10.30;;;9.38;;
76733;SDS011;65660;53.288;14.666;2023-08-12T14:52:23;10.05;;;9.07;;
76733;SDS011;65660;53.288;14.666;2023-08-12T14:57:24;9.25;;;8.50;;
76733;SDS011;65660;53.288;14.666;2023-08-12T15:02:24;10.18;;;9.20;;
76733;SDS011;65660;53.288;14.666;2023-08-12T15:07:25;10.82;;;9.82;;
76733;SDS011;65660;53.288;14.666;2023-08-12T15:12:26;13.45;;;9.55;;
76733;SDS011;65660;53.288;14.666;2023-08-12T15:17:26;10.30;;;9.25;;
76733;SDS011;65660;53.288;14.666;2023-08-12T15:22:27;10.93;;;9.93;;
76733;SDS011;65660;53.288;14.666;2023-08-12T15:27:28;10.95;;;8.93;;
76733;SDS011;65660;53.288;14.666;2023-08-12T15:32:28;10.15;;;9.13;;
76733;SDS011;65660;53.288;14.666;2023-08-12T15:37:34;9.60;;;8.80;;
76733;SDS011;65660;53.288;14.666;2023-08-12T15:42:40;9.60;;;8.55;;
76733;SDS011;65660;53.288;14.666;2023-08-12T15:47:42;9.30;;;7.78;;
76733;SDS011;65660;53.288;14.666;2023-08-12T15:52:48;9.23;;;8.38;;
76733;SDS011;65660;53.288;14.666;2023-08-12T15:57:48;12.02;;;11.00;;
76733;SDS011;65660;53.288;14.666;2023-08-12T16:02:49;12.60;;;10.95;;
76733;SDS011;65660;53.288;14.666;2023-08-12T16:07:50;10.07;;;9.18;;
76733;SDS011;65660;53.288;14.666;2023-08-12T16:12:51;8.98;;;8.18;;
76733;SDS011;65660;53.288;14.666;2023-08-12T16:17:52;11.77;;;9.70;;
76733;SDS011;65660;53.288;14.666;2023-08-12T16:22:52;10.43;;;9.45;;
76733;SDS011;65660;53.288;14.666;2023-08-12T16:27:53;13.35;;;12.15;;
76733;SDS011;65660;53.288;14.666;2023-08-12T16:32:53;15.18;;;13.55;;
76733;SDS011;65660;53.288;14.666;2023-08-12T16:37:54;15.32;;;11.25;;
76733;SDS011;65660;53.288;14.666;2023-08-12T16:42:55;12.07;;;10.90;;
76733;SDS011;65660;53.288;14.666;2023-08-12T16:47:55;13.48;;;10.30;;
76733;SDS011;65660;53.288;14.666;2023-08-12T16:52:56;9.70;;;8.55;;
76733;SDS011;65660;53.288;14.666;2023-08-12T16:57:56;9.63;;;8.65;;
76733;SDS011;65660;53.288;14.666;2023-08-12T17:02:57;11.80;;;10.60;;
76733;SDS011;65660;53.288;14.666;2023-08-12T17:07:58;10.82;;;9.75;;
76733;SDS011;65660;53.288;14.666;2023-08-12T17:12:58;9.35;;;8.35;;
76733;SDS011;65660;53.288;14.666;2023-08-12T17:17:59;9.35;;;8.43;;
76733;SDS011;65660;53.288;14.666;2023-08-12T17:23:00;8.40;;;7.57;;
76733;SDS011;65660;53.288;14.666;2023-08-12T17:28:01;9.48;;;8.65;;
76733;SDS011;65660;53.288;14.666;2023-08-12T17:33:02;11.63;;;9.80;;
76733;SDS011;65660;53.288;14.666;2023-08-12T17:38:02;10.82;;;9.82;;
76733;SDS011;65660;53.288;14.666;2023-08-12T17:43:03;12.18;;;11.13;;
76733;SDS011;65660;53.288;14.666;2023-08-12T17:48:05;12.43;;;10.77;;
76733;SDS011;65660;53.288;14.666;2023-08-12T17:53:05;13.18;;;11.98;;
76733;SDS011;65660;53.288;14.666;2023-08-12T17:58:06;11.93;;;10.73;;
76733;SDS011;65660;53.288;14.666;2023-08-12T18:03:07;13.05;;;10.88;;
76733;SDS011;65660;53.288;14.666;2023-08-12T18:08:07;11.98;;;10.68;;
76733;SDS011;65660;53.288;14.666;2023-08-12T18:13:08;11.23;;;10.23;;
76733;SDS011;65660;53.288;14.666;2023-08-12T18:18:09;11.63;;;10.40;;
76733;SDS011;65660;53.288;14.666;2023-08-12T18:23:09;15.10;;;10.77;;
76733;SDS011;65660;53.288;14.666;2023-08-12T18:28:10;12.45;;;11.15;;
76733;SDS011;65660;53.288;14.666;2023-08-12T18:33:10;13.63;;;12.27;;
76733;SDS011;65660;53.288;14.666;2023-08-12T18:38:11;11.68;;;10.63;;
76733;SDS011;65660;53.288;14.666;2023-08-12T18:43:11;10.90;;;10.07;;
76733;SDS011;65660;53.288;14.666;2023-08-12T18:48:12;12.05;;;10.95;;
76733;SDS011;65660;53.288;14.666;2023-08-12T18:53:12;11.57;;;10.38;;
76733;SDS011;65660;53.288;14.666;2023-08-12T18:58:13;11.82;;;10.73;;
76733;SDS011;65660;53.288;14.666;2023-08-12T19:03:14;11.77;;;10.65;;
76733;SDS011;65660;53.288;14.666;2023-08-12T19:08:14;12.55;;;11.30;;
76733;SDS011;65660;53.288;14.666;2023-08-12T19:13:15;11.48;;;10.52;;
76733;SDS011;65660;53.288;14.666;2023-08-12T19:18:16;11.20;;;10.27;;
76733;SDS011;65660;53.288;14.666;2023-08-12T19:23:16;11.55;;;10.45;;
76733;SDS011;65660;53.288;14.666;2023-08-12T19:28:17;10.27;;;9.48;;
76733;SDS011;65660;53.288;14.666;2023-08-12T19:33:17;12.02;;;10.48;;
76733;SDS011;65660;53.288;14.666;2023-08-12T19:38:18;10.35;;;9.40;;
76733;SDS011;65660;53.288;14.666;2023-08-12T19:43:19;11.98;;;10.10;;
76733;SDS011;65660;53.288;14.666;2023-08-12T19:48:19;9.38;;;8.68;;
76733;SDS011;65660;53.288;14.666;2023-08-12T19:53:20;10.02;;;9.02;;
76733;SDS011;65660;53.288;14.666;2023-08-12T19:58:22;10.32;;;9.27;;
76733;SDS011;65660;53.288;14.666;2023-08-12T20:03:23;10.70;;;9.57;;
76733;SDS011;65660;53.288;14.666;2023-08-12T20:08:25;10.65;;;9.70;;
76733;SDS011;65660;53.288;14.666;2023-08-12T20:13:26;10.35;;;8.63;;
76733;SDS011;65660;53.288;14.666;2023-08-12T20:18:26;11.63;;;10.52;;
76733;SDS011;65660;53.288;14.666;2023-08-12T20:23:27;11.93;;;9.98;;
76733;SDS011;65660;53.288;14.666;2023-08-12T20:28:28;11.57;;;9.95;;
76733;SDS011;65660;53.288;14.666;2023-08-12T20:33:28;10.50;;;9.40;;
76733;SDS011;65660;53.288;14.666;2023-08-12T20:38:29;9.30;;;8.43;;
76733;SDS011;65660;53.288;14.666;2023-08-12T20:43:29;8.65;;;7.72;;
76733;SDS011;65660;53.288;14.666;2023-08-12T20:48:30;6.63;;;6.13;;
76733;SDS011;65660;53.288;14.666;2023-08-12T20:53:31;7.80;;;6.57;;
76733;SDS011;65660;53.288;14.666;2023-08-12T20:58:31;7.13;;;6.53;;
76733;SDS011;65660;53.288;14.666;2023-08-12T21:03:32;9.13;;;8.32;;
76733;SDS011;65660;53.288;14.666;2023-08-12T21:08:33;8.73;;;8.00;;
76733;SDS011;65660;53.288;14.666;2023-08-12T21:13:33;8.65;;;7.70;;
76733;SDS011;65660;53.288;14.666;2023-08-12T21:18:34;8.88;;;8.07;;
76733;SDS011;65660;53.288;14.666;2023-08-12T21:23:34;8.23;;;7.43;;
76733;SDS011;65660;53.288;14.666;2023-08-12T21:28:35;8.10;;;7.30;;
76733;SDS011;65660;53.288;14.666;2023-08-12T21:33:35;9.27;;;7.50;;
76733;SDS011;65660;53.288;14.666;2023-08-12T21:38:36;9.75;;;7.22;;
76733;SDS011;65660;53.288;14.666;2023-08-12T21:43:37;8.82;;;7.30;;
76733;SDS011;65660;53.288;14.666;2023-08-12T21:48:37;13.07;;;8.95;;
76733;SDS011;65660;53.288;14.666;2023-08-12T21:53:38;8.75;;;7.85;;
76733;SDS011;65660;53.288;14.666;2023-08-12T21:58:38;8.52;;;7.63;;
76733;SDS011;65660;53.288;14.666;2023-08-12T22:03:39;12.25;;;7.78;;
76733;SDS011;65660;53.288;14.666;2023-08-12T22:08:40;7.28;;;6.65;;
76733;SDS011;65660;53.288;14.666;2023-08-12T22:13:40;10.27;;;7.20;;
76733;SDS011;65660;53.288;14.666;2023-08-12T22:18:41;7.68;;;7.00;;
76733;SDS011;65660;53.288;14.666;2023-08-12T22:23:41;7.50;;;6.90;;
76733;SDS011;65660;53.288;14.666;2023-08-12T22:28:42;8.25;;;7.30;;
76733;SDS011;65660;53.288;14.666;2023-08-12T22:33:42;8.48;;;7.57;;
76733;SDS011;65660;53.288;14.666;2023-08-12T22:38:43;8.68;;;7.80;;
76733;SDS011;65660;53.288;14.666;2023-08-12T22:43:44;8.68;;;7.88;;
76733;SDS011;65660;53.288;14.666;2023-08-12T22:48:44;8.85;;;8.15;;
76733;SDS011;65660;53.288;14.666;2023-08-12T22:53:45;9.75;;;7.75;;
76733;SDS011;65660;53.288;14.666;2023-08-12T22:58:45;9.02;;;8.20;;
76733;SDS011;65660;53.288;14.666;2023-08-12T23:03:46;18.25;;;10.50;;
76733;SDS011;65660;53.288;14.666;2023-08-12T23:08:46;36.20;;;19.92;;
76733;SDS011;65660;53.288;14.666;2023-08-12T23:13:47;45.17;;;24.02;;
76733;SDS011;65660;53.288;14.666;2023-08-12T23:18:47;47.33;;;23.80;;
76733;SDS011;65660;53.288;14.666;2023-08-12T23:23:48;44.53;;;23.58;;
76733;SDS011;65660;53.288;14.666;2023-08-12T23:28:49;50.78;;;26.63;;
76733;SDS011;65660;53.288;14.666;2023-08-12T23:33:49;36.30;;;20.52;;
76733;SDS011;65660;53.288;14.666;2023-08-12T23:38:50;26.48;;;16.50;;
76733;SDS011;65660;53.288;14.666;2023-08-12T23:43:50;18.88;;;13.70;;
76733;SDS011;65660;53.288;14.666;2023-08-12T23:48:51;11.95;;;10.63;;
76733;SDS011;65660;53.288;14.666;2023-08-12T23:53:52;11.63;;;10.15;;
76733;SDS011;65660;53.288;14.666;2023-08-12T23:58:52;14.57;;;10.40;;
